Main page
METAR-TAF:

METAR-TAF

Airports :

Karlsruhe/Baden-Baden Airport

Baden-Baden, Germany

latitude: 48-46-43N, longitude: 008-04-47E, elevation: 124 m

Current weather observation

The report was made 30 minutes ago, at 22:50 UTC
Wind 10 kt from the North/Northeast
Temperature 17°C
Humidity 42%
Pressure 999 hPa
Visibility 10 km or more

METAR: EDSB 222250Z AUTO 02010KT 9999 // NCD 17/04 Q0999

Time: 01:20 (23:20 UTC)

Forecast

The report was made 6 hours and 20 minutes ago, at 17:00 UTC
Forecast valid from 22 at 18 UTC to 23 at 18 UTC
Wind 10 kt from the East/Northeast
Visibility 10 km or more
no clouds below 1500 m and no cumulonimbus
Becoming
from 23 at 01 UTC to 23 at 03 UTC
Wind 5 kt from the North

TAF: EDSB 221700Z 2218/2318 06010KT CAVOK BECMG 2301/2303 01005KT

Weather observations and forecasts of more than 4000 airports (METAR and TAF reports).

The available stations are represented by yellow and red dots on the map.

Hover mouse over dot to see the name of the station.

Then click to see weather observations and forecasts.

To change the map : click on the green buttons with a black cross to zoom in, on the green button with a dash to zoom out, or on the green arrows for adjacent maps.


METAR-TAF: